createdAt,value
2022-12-09T00:00:31.519Z,6.37
2022-12-09T00:02:59.599Z,6.27
2022-12-09T00:05:26.825Z,6.17
2022-12-09T00:07:53.940Z,5.70
2022-12-09T00:10:21.251Z,6.20
2022-12-09T00:12:48.411Z,5.93
2022-12-09T00:15:15.523Z,6.57
2022-12-09T00:17:42.551Z,6.30
2022-12-09T00:20:10.278Z,6.00
2022-12-09T00:22:37.914Z,6.63
2022-12-09T00:25:05.289Z,6.43
2022-12-09T00:27:32.367Z,7.87
2022-12-09T00:29:59.206Z,6.83
2022-12-09T00:32:26.460Z,7.00
2022-12-09T00:34:53.569Z,7.13
2022-12-09T00:37:21.044Z,6.40
2022-12-09T00:39:48.039Z,7.63
2022-12-09T00:42:15.058Z,6.70
2022-12-09T00:44:42.223Z,6.30
2022-12-09T00:47:09.504Z,7.40
2022-12-09T00:49:36.701Z,7.50
2022-12-09T00:52:04.078Z,7.60
2022-12-09T00:54:31.115Z,7.07
2022-12-09T00:56:58.682Z,7.20
2022-12-09T00:59:26.040Z,7.37
2022-12-09T01:01:53.162Z,7.77
2022-12-09T01:04:20.252Z,7.40
2022-12-09T01:06:47.284Z,7.27
2022-12-09T01:09:14.380Z,7.27
2022-12-09T01:11:41.681Z,7.37
2022-12-09T01:14:08.643Z,7.03
2022-12-09T01:16:36.051Z,7.37
2022-12-09T01:19:07.056Z,7.20
2022-12-09T01:21:34.875Z,6.43
2022-12-09T01:24:06.421Z,6.43
2022-12-09T01:26:33.897Z,7.13
2022-12-09T01:29:00.918Z,6.70
2022-12-09T01:31:28.040Z,7.17
2022-12-09T01:33:56.410Z,6.97
2022-12-09T01:36:26.845Z,6.70
2022-12-09T01:38:54.785Z,7.10
2022-12-09T01:41:22.739Z,7.20
2022-12-09T01:44:11.713Z,6.60
2022-12-09T01:46:38.939Z,7.17
2022-12-09T01:49:08.732Z,7.23
2022-12-09T01:51:37.337Z,6.57
2022-12-09T01:54:04.984Z,6.30
2022-12-09T01:56:37.369Z,6.37
2022-12-09T01:59:11.286Z,6.57
2022-12-09T02:01:39.516Z,6.17
2022-12-09T02:04:07.182Z,5.80
2022-12-09T02:06:37.830Z,6.07
2022-12-09T02:09:05.247Z,6.27
2022-12-09T02:12:00.947Z,5.80
2022-12-09T02:14:36.230Z,5.60
2022-12-09T02:17:15.368Z,6.03
2022-12-09T02:20:01.865Z,6.83
2022-12-09T02:22:38.484Z,6.60
2022-12-09T02:25:16.933Z,6.97
2022-12-09T02:28:11.709Z,6.20
2022-12-09T02:30:55.494Z,6.70
2022-12-09T02:33:40.298Z,6.40
2022-12-09T02:36:16.551Z,6.80
2022-12-09T02:38:44.567Z,6.43
2022-12-09T02:41:17.167Z,6.00
2022-12-09T02:43:53.824Z,6.77
2022-12-09T02:46:21.883Z,7.07
2022-12-09T02:48:54.335Z,6.43
2022-12-09T02:51:23.589Z,6.47
2022-12-09T02:53:56.202Z,6.60
2022-12-09T02:56:24.302Z,6.63
2022-12-09T02:58:51.614Z,6.67
2022-12-09T03:01:24.170Z,7.33
2022-12-09T03:03:54.316Z,7.40
2022-12-09T03:06:29.052Z,6.17
2022-12-09T03:08:58.988Z,7.27
2022-12-09T03:11:26.725Z,7.00
2022-12-09T03:14:16.066Z,7.43
2022-12-09T03:16:49.559Z,7.27
2022-12-09T03:19:16.846Z,6.90
2022-12-09T03:21:49.113Z,6.50
2022-12-09T03:24:21.024Z,7.13
2022-12-09T03:26:49.203Z,7.37
2022-12-09T03:29:23.301Z,6.90
2022-12-09T03:31:52.375Z,6.27
2022-12-09T03:34:25.614Z,6.87
2022-12-09T03:36:53.881Z,7.30
2022-12-09T03:39:25.676Z,6.87
2022-12-09T03:41:59.621Z,6.80
2022-12-09T03:44:41.498Z,7.43
2022-12-09T03:47:09.862Z,7.43
2022-12-09T03:49:39.118Z,7.30
2022-12-09T03:52:09.339Z,6.77
2022-12-09T03:54:44.636Z,7.20
2022-12-09T03:57:19.010Z,7.53
2022-12-09T04:00:01.057Z,7.00
2022-12-09T04:02:29.386Z,7.10
2022-12-09T04:04:57.022Z,6.47
2022-12-09T04:07:24.361Z,7.20
2022-12-09T04:09:51.337Z,7.23
2022-12-09T04:12:18.339Z,7.33
2022-12-09T04:14:45.811Z,7.37
2022-12-09T04:17:12.813Z,7.70
2022-12-09T04:19:40.237Z,7.97
2022-12-09T04:22:07.252Z,7.40
2022-12-09T04:24:34.301Z,7.43
2022-12-09T04:27:01.236Z,7.00
2022-12-09T04:29:28.241Z,7.73
2022-12-09T04:31:55.584Z,6.93
2022-12-09T04:34:22.670Z,7.43
2022-12-09T04:36:49.585Z,7.80
2022-12-09T04:39:17.125Z,7.53
2022-12-09T04:41:43.997Z,7.40
2022-12-09T04:44:11.336Z,6.87
2022-12-09T04:46:38.610Z,6.73
2022-12-09T04:49:05.712Z,7.10
2022-12-09T04:51:39.202Z,7.53
2022-12-09T04:54:07.404Z,6.77
2022-12-09T04:56:34.312Z,6.60
2022-12-09T04:59:01.347Z,6.40
2022-12-09T05:01:31.152Z,6.67
2022-12-09T05:03:59.001Z,6.40
2022-12-09T05:06:26.800Z,6.30
2022-12-09T05:08:54.873Z,6.17
2022-12-09T05:11:23.881Z,6.40
2022-12-09T05:13:51.965Z,5.50
2022-12-09T05:16:20.083Z,5.90
2022-12-09T05:18:49.120Z,5.67
2022-12-09T05:21:19.412Z,5.33
2022-12-09T05:23:47.265Z,4.70
2022-12-09T05:26:17.810Z,5.60
2022-12-09T05:28:45.652Z,5.47
2022-12-09T05:31:19.838Z,5.83
2022-12-09T05:33:47.964Z,5.80
2022-12-09T05:36:18.314Z,5.40
2022-12-09T05:38:45.784Z,5.60
2022-12-09T05:41:13.501Z,6.03
2022-12-09T05:43:41.083Z,6.07
2022-12-09T05:46:08.584Z,6.23
2022-12-09T05:48:36.821Z,6.20
2022-12-09T05:51:13.064Z,6.47
2022-12-09T05:53:40.263Z,4.93
2022-12-09T05:56:07.493Z,5.90
2022-12-09T05:58:35.121Z,6.83
2022-12-09T06:01:09.517Z,5.77
2022-12-09T06:03:37.764Z,6.47
2022-12-09T06:06:10.479Z,6.67
2022-12-09T06:08:38.758Z,5.53
2022-12-09T06:11:14.501Z,6.07
2022-12-09T06:13:42.290Z,4.30
2022-12-09T06:16:10.723Z,6.37
2022-12-09T06:18:38.035Z,6.23
2022-12-09T06:21:07.535Z,6.40
2022-12-09T06:23:36.153Z,6.83
2022-12-09T06:26:04.891Z,5.97
2022-12-09T06:28:32.141Z,5.37
2022-12-09T06:30:59.448Z,7.03
2022-12-09T06:33:53.720Z,6.57
2022-12-09T06:36:13.966Z,6.30
2022-12-09T06:38:41.207Z,6.67
2022-12-09T06:41:10.521Z,6.50
2022-12-09T06:43:38.291Z,6.70
2022-12-09T06:46:17.867Z,7.03
2022-12-09T06:48:46.176Z,6.73
2022-12-09T06:51:13.617Z,6.63
2022-12-09T06:53:40.920Z,7.03
2022-12-09T06:56:12.670Z,6.67
2022-12-09T06:58:42.433Z,6.77
2022-12-09T07:01:13.800Z,6.50
2022-12-09T07:03:44.047Z,7.00
2022-12-09T07:06:23.871Z,7.87
2022-12-09T07:08:51.805Z,7.00
2022-12-09T07:11:19.470Z,6.50
2022-12-09T07:13:47.265Z,7.13
2022-12-09T07:16:14.347Z,6.63
2022-12-09T07:18:41.739Z,6.97
2022-12-09T07:21:13.437Z,6.83
2022-12-09T07:23:40.945Z,6.93
2022-12-09T07:26:08.793Z,7.13
2022-12-09T07:28:39.374Z,7.57
2022-12-09T07:31:06.526Z,7.27
2022-12-09T07:33:33.557Z,6.00
2022-12-09T07:36:01.088Z,7.97
2022-12-09T07:38:28.567Z,6.90
2022-12-09T07:41:04.239Z,7.37
2022-12-09T07:43:34.234Z,7.60
2022-12-09T07:46:06.787Z,7.07
2022-12-09T07:48:34.342Z,6.90
2022-12-09T07:51:03.408Z,6.40
2022-12-09T07:53:31.521Z,7.67
2022-12-09T07:56:03.131Z,7.17
2022-12-09T07:58:30.507Z,8.33
2022-12-09T08:00:57.825Z,8.10
2022-12-09T08:03:24.880Z,8.17
2022-12-09T08:05:53.854Z,8.27
2022-12-09T08:08:21.358Z,8.03
2022-12-09T08:10:49.533Z,8.27
2022-12-09T08:13:17.163Z,8.00
2022-12-09T08:15:44.154Z,7.17
2022-12-09T08:18:11.257Z,6.73
2022-12-09T08:20:39.884Z,7.97
2022-12-09T08:23:07.578Z,7.50
2022-12-09T08:25:34.772Z,8.40
2022-12-09T08:28:02.329Z,8.83
2022-12-09T08:30:30.328Z,7.90
2022-12-09T08:32:57.955Z,8.97
2022-12-09T08:35:25.598Z,9.00
2022-12-09T08:37:52.784Z,8.90
2022-12-09T08:40:19.795Z,8.20
2022-12-09T08:42:47.037Z,6.10
2022-12-09T08:45:14.470Z,7.17
2022-12-09T08:47:42.838Z,8.30
2022-12-09T08:50:10.584Z,9.63
2022-12-09T08:52:40.681Z,9.43
2022-12-09T08:55:09.449Z,8.70
2022-12-09T08:57:36.663Z,8.83
2022-12-09T09:00:04.429Z,10.63
2022-12-09T09:02:32.014Z,9.20
2022-12-09T09:05:00.249Z,8.77
2022-12-09T09:07:27.926Z,8.00
2022-12-09T09:09:55.066Z,8.40
2022-12-09T09:12:23.379Z,8.50
2022-12-09T09:14:50.439Z,10.07
2022-12-09T09:17:17.395Z,9.67
2022-12-09T09:19:44.810Z,9.10
2022-12-09T09:22:12.486Z,10.10
2022-12-09T09:24:39.826Z,11.10
2022-12-09T09:27:07.739Z,10.37
2022-12-09T09:29:35.070Z,10.33
2022-12-09T09:32:02.138Z,9.17
2022-12-09T09:34:29.358Z,8.50
2022-12-09T09:36:57.676Z,10.33
2022-12-09T09:39:25.011Z,9.43
2022-12-09T09:41:54.498Z,9.63
2022-12-09T09:44:33.890Z,10.30
2022-12-09T09:47:03.759Z,10.17
2022-12-09T09:49:50.158Z,10.43
2022-12-09T09:52:23.240Z,10.60
2022-12-09T09:54:52.103Z,10.50
2022-12-09T09:57:44.449Z,9.73
2022-12-09T10:00:26.895Z,9.20
2022-12-09T10:03:10.283Z,8.67
2022-12-09T10:05:52.858Z,9.47
2022-12-09T10:08:35.745Z,10.70
2022-12-09T10:11:18.908Z,10.73
2022-12-09T10:14:01.892Z,9.60
2022-12-09T10:16:54.317Z,11.17
2022-12-09T10:19:36.234Z,10.47
2022-12-09T10:22:15.421Z,10.87
2022-12-09T10:24:51.698Z,10.50
2022-12-09T10:27:43.337Z,11.23
2022-12-09T10:30:12.238Z,12.00
2022-12-09T10:32:40.461Z,11.53
2022-12-09T10:35:25.781Z,10.03
2022-12-09T10:37:55.707Z,10.00
2022-12-09T10:40:47.387Z,11.10
2022-12-09T10:43:37.418Z,10.57
2022-12-09T10:46:18.749Z,9.00
2022-12-09T10:48:49.748Z,9.37
2022-12-09T10:51:17.644Z,9.83
2022-12-09T10:53:56.136Z,11.20
2022-12-09T10:56:28.438Z,9.63
2022-12-09T10:59:15.954Z,9.93
2022-12-09T11:02:01.577Z,9.50
2022-12-09T11:04:38.402Z,10.10
2022-12-09T11:07:26.344Z,9.97
2022-12-09T11:09:56.752Z,10.43
2022-12-09T11:12:29.961Z,9.70
2022-12-09T11:15:01.370Z,9.50
2022-12-09T11:17:30.757Z,10.10
2022-12-09T11:20:21.146Z,9.30
2022-12-09T11:23:17.145Z,9.43
2022-12-09T11:25:59.275Z,11.10
2022-12-09T11:28:38.816Z,8.97
2022-12-09T11:33:59.113Z,8.93
2022-12-09T11:36:32.626Z,10.00
2022-12-09T11:39:18.483Z,9.87
2022-12-09T11:42:19.048Z,10.50
2022-12-09T11:44:53.120Z,8.70
2022-12-09T11:50:31.573Z,7.87
2022-12-09T11:53:23.228Z,10.37
2022-12-09T11:55:55.325Z,7.57
2022-12-09T11:58:38.201Z,9.37
2022-12-09T12:01:20.191Z,9.53
2022-12-09T12:03:52.502Z,7.40
2022-12-09T12:06:27.819Z,9.07
2022-12-09T12:09:32.592Z,9.20
2022-12-09T12:12:19.347Z,10.43
2022-12-09T12:14:47.157Z,10.03
2022-12-09T12:17:25.906Z,10.27
2022-12-09T12:19:56.260Z,10.27
2022-12-09T12:23:00.110Z,10.40
2022-12-09T12:25:42.181Z,10.87
2022-12-09T12:28:36.301Z,10.40
2022-12-09T12:31:12.141Z,8.83
2022-12-09T12:34:22.937Z,10.30
2022-12-09T12:36:52.830Z,10.30
2022-12-09T12:39:42.888Z,7.73
2022-12-09T12:42:27.998Z,10.33
2022-12-09T12:45:36.955Z,10.83
2022-12-09T12:48:10.290Z,10.87
2022-12-09T12:50:59.463Z,9.07
2022-12-09T12:54:17.153Z,11.07
2022-12-09T12:57:09.314Z,8.93
2022-12-09T12:59:56.477Z,9.90
2022-12-09T13:02:28.422Z,10.67
2022-12-09T13:05:04.979Z,10.43
2022-12-09T13:07:44.370Z,9.77
2022-12-09T13:10:21.214Z,9.03
2022-12-09T13:12:57.048Z,10.80
2022-12-09T13:15:51.732Z,9.93
2022-12-09T13:18:36.051Z,10.90
2022-12-09T13:21:05.175Z,10.30
2022-12-09T13:24:26.760Z,11.03
2022-12-09T13:27:04.666Z,10.63
2022-12-09T13:29:34.393Z,11.17
2022-12-09T13:32:22.427Z,11.17
2022-12-09T13:34:54.385Z,10.30
2022-12-09T13:37:36.685Z,10.20
2022-12-09T13:40:27.641Z,9.77
2022-12-09T13:43:03.657Z,9.30
2022-12-09T13:45:36.358Z,10.53
2022-12-09T13:48:29.263Z,10.50
2022-12-09T13:50:59.472Z,9.87
2022-12-09T13:53:33.768Z,8.40
2022-12-09T13:56:15.979Z,9.83
2022-12-09T13:59:07.821Z,9.93
2022-12-09T14:01:43.760Z,10.77
2022-12-09T14:04:44.906Z,10.00
2022-12-09T14:07:21.584Z,9.73
2022-12-09T14:09:54.421Z,7.03
2022-12-09T14:12:28.274Z,7.37
2022-12-09T14:14:56.755Z,9.33
2022-12-09T14:17:57.813Z,9.23
2022-12-09T14:20:37.558Z,10.40
2022-12-09T14:23:07.467Z,7.73
2022-12-09T14:25:34.323Z,10.77
2022-12-09T14:28:25.504Z,10.40
2022-12-09T14:30:54.274Z,10.10
2022-12-09T14:33:33.662Z,6.57
2022-12-09T14:36:15.991Z,10.60
2022-12-09T14:39:07.671Z,8.93
2022-12-09T14:41:39.968Z,8.73
2022-12-09T14:44:31.221Z,10.33
2022-12-09T14:47:22.592Z,10.50
2022-12-09T14:49:50.819Z,11.27
2022-12-09T14:52:32.943Z,11.50
2022-12-09T14:55:04.553Z,10.57
2022-12-09T14:57:38.926Z,11.10
2022-12-09T15:00:07.810Z,12.30
2022-12-09T15:02:35.604Z,11.10
2022-12-09T15:05:03.937Z,10.53
2022-12-09T15:07:32.581Z,10.00
2022-12-09T15:10:17.557Z,11.03
2022-12-09T15:12:50.909Z,10.23
2022-12-09T15:15:25.323Z,11.87
2022-12-09T15:17:59.049Z,10.03
2022-12-09T15:20:35.264Z,11.90
2022-12-09T15:23:16.967Z,11.97
2022-12-09T15:25:59.113Z,11.97
2022-12-09T15:28:29.349Z,12.40
2022-12-09T15:31:01.516Z,13.00
2022-12-09T15:33:37.949Z,13.00
2022-12-09T15:36:09.821Z,12.87
2022-12-09T15:38:44.156Z,12.13
2022-12-09T15:41:29.694Z,12.60
2022-12-09T15:43:59.807Z,12.27
2022-12-09T15:46:28.380Z,12.07
2022-12-09T15:48:58.377Z,13.03
2022-12-09T15:51:29.457Z,12.57
2022-12-09T15:54:01.489Z,12.30
2022-12-09T15:56:40.815Z,11.33
2022-12-09T15:59:21.332Z,12.03
2022-12-09T16:01:53.828Z,12.70
2022-12-09T16:04:26.123Z,11.60
2022-12-09T16:06:55.817Z,11.43
2022-12-09T16:09:23.757Z,12.03
2022-12-09T16:11:53.566Z,12.13
2022-12-09T16:14:22.570Z,12.40
2022-12-09T16:17:01.538Z,13.10
2022-12-09T16:19:31.677Z,13.10
2022-12-09T16:22:27.454Z,13.07
2022-12-09T16:25:15.433Z,12.63
2022-12-09T16:27:48.905Z,12.40
2022-12-09T16:30:24.497Z,13.63
2022-12-09T16:32:59.411Z,11.80
2022-12-09T16:35:42.798Z,12.70
2022-12-09T16:38:09.949Z,12.10
2022-12-09T16:40:46.274Z,12.60
2022-12-09T16:43:16.533Z,14.17
2022-12-09T16:45:48.947Z,14.13
2022-12-09T16:48:17.319Z,13.27
2022-12-09T16:50:55.736Z,13.33
2022-12-09T16:53:34.170Z,14.37
2022-12-09T16:56:03.129Z,13.27
2022-12-09T16:58:32.948Z,15.43
2022-12-09T17:01:02.728Z,15.10
2022-12-09T17:03:39.916Z,15.03
2022-12-09T17:06:09.885Z,14.23
2022-12-09T17:08:38.003Z,13.87
2022-12-09T17:11:05.058Z,13.97
2022-12-09T17:13:32.108Z,15.37
2022-12-09T17:16:01.824Z,15.07
2022-12-09T17:18:30.120Z,15.23
2022-12-09T17:21:08.074Z,15.43
2022-12-09T17:23:39.959Z,15.43
2022-12-09T17:26:10.928Z,15.37
2022-12-09T17:28:39.463Z,16.23
2022-12-09T17:31:19.179Z,17.83
2022-12-09T17:33:46.663Z,16.23
2022-12-09T17:36:16.351Z,15.40
2022-12-09T17:38:43.703Z,16.03
2022-12-09T17:41:18.781Z,16.70
2022-12-09T17:43:45.877Z,15.90
2022-12-09T17:46:13.733Z,15.30
2022-12-09T17:48:41.901Z,16.37
2022-12-09T17:51:14.643Z,15.10
2022-12-09T17:53:43.337Z,14.77
2022-12-09T17:56:22.795Z,14.67
2022-12-09T17:58:59.764Z,14.10
2022-12-09T18:01:27.068Z,14.50
2022-12-09T18:04:02.864Z,16.77
2022-12-09T18:06:34.815Z,15.40
2022-12-09T18:09:03.813Z,14.63
2022-12-09T18:11:30.725Z,14.50
2022-12-09T18:13:57.753Z,15.00
2022-12-09T18:16:24.789Z,17.40
2022-12-09T18:18:52.457Z,15.10
2022-12-09T18:21:20.088Z,15.87
2022-12-09T18:23:48.396Z,16.20
2022-12-09T18:26:17.619Z,16.90
2022-12-09T18:28:44.859Z,15.20
2022-12-09T18:31:15.383Z,16.33
2022-12-09T18:33:43.213Z,15.47
2022-12-09T18:36:13.447Z,15.77
2022-12-09T18:38:41.601Z,15.77
2022-12-09T18:41:17.472Z,15.47
2022-12-09T18:43:46.673Z,16.83
2022-12-09T18:46:24.994Z,15.70
2022-12-09T18:49:23.630Z,16.97
2022-12-09T18:51:52.393Z,16.17
2022-12-09T18:54:28.755Z,15.17
2022-12-09T18:56:56.388Z,14.37
2022-12-09T18:59:25.599Z,11.93
2022-12-09T19:01:53.171Z,15.07
2022-12-09T19:04:23.561Z,13.90
2022-12-09T19:06:52.733Z,15.10
2022-12-09T19:09:22.479Z,14.83
2022-12-09T19:11:50.846Z,15.53
2022-12-09T19:14:19.880Z,12.13
2022-12-09T19:16:47.526Z,13.13
2022-12-09T19:19:16.779Z,15.33
2022-12-09T19:21:44.398Z,14.97
2022-12-09T19:24:17.831Z,14.63
2022-12-09T19:26:45.317Z,12.80
2022-12-09T19:29:13.819Z,14.77
2022-12-09T19:31:44.210Z,15.17
2022-12-09T19:34:20.207Z,15.87
2022-12-09T19:36:49.128Z,13.00
2022-12-09T19:39:18.019Z,16.67
2022-12-09T19:41:45.513Z,15.30
2022-12-09T19:44:21.565Z,16.27
2022-12-09T19:46:58.360Z,15.93
2022-12-09T19:49:25.422Z,16.70
2022-12-09T19:51:52.858Z,15.93
2022-12-09T19:54:26.722Z,16.63
2022-12-09T19:56:56.193Z,17.23
2022-12-09T19:59:24.826Z,16.23
2022-12-09T20:01:52.088Z,15.63
2022-12-09T20:07:08.694Z,16.47
2022-12-09T20:09:37.445Z,17.03
2022-12-09T20:12:04.815Z,17.37
2022-12-09T20:14:31.925Z,16.00
2022-12-09T20:16:58.855Z,16.03
2022-12-09T20:19:25.785Z,16.43
2022-12-09T20:21:52.843Z,15.97
2022-12-09T20:24:19.842Z,16.53
2022-12-09T20:26:46.722Z,17.77
2022-12-09T20:29:13.675Z,15.67
2022-12-09T20:31:42.395Z,17.23
2022-12-09T20:34:13.399Z,16.77
2022-12-09T20:36:42.125Z,15.90
2022-12-09T20:39:19.442Z,16.67
2022-12-09T20:41:47.245Z,16.97
2022-12-09T20:44:15.710Z,15.70
2022-12-09T20:46:47.997Z,13.87
2022-12-09T20:49:15.216Z,16.00
2022-12-09T20:51:48.551Z,15.50
2022-12-09T20:54:15.685Z,16.07
2022-12-09T20:56:42.783Z,16.43
2022-12-09T20:59:11.870Z,17.30
2022-12-09T21:01:39.371Z,17.37
2022-12-09T21:04:07.552Z,19.17
2022-12-09T21:06:37.479Z,17.63
2022-12-09T21:09:10.181Z,17.67
2022-12-09T21:11:37.869Z,17.83
2022-12-09T21:14:06.921Z,17.87
2022-12-09T21:16:40.798Z,17.50
2022-12-09T21:19:11.669Z,18.93
2022-12-09T21:21:40.459Z,18.13
2022-12-09T21:24:09.729Z,17.23
2022-12-09T21:26:37.097Z,18.10
2022-12-09T21:29:04.281Z,18.83
2022-12-09T21:31:34.151Z,19.23
2022-12-09T21:34:05.247Z,18.33
2022-12-09T21:36:35.379Z,19.00
2022-12-09T21:39:03.846Z,20.07
2022-12-09T21:41:32.986Z,18.90
2022-12-09T21:44:00.252Z,18.57
2022-12-09T21:46:33.034Z,19.30
2022-12-09T21:49:04.041Z,17.93
2022-12-09T21:51:32.356Z,20.40
2022-12-09T21:53:59.929Z,17.40
2022-12-09T21:56:30.255Z,18.07
2022-12-09T21:58:59.068Z,19.23
2022-12-09T22:01:32.727Z,19.37
2022-12-09T22:04:01.586Z,19.50
2022-12-09T22:06:29.049Z,19.03
2022-12-09T22:08:59.838Z,18.90
2022-12-09T22:11:30.793Z,19.03
2022-12-09T22:13:59.555Z,20.07
2022-12-09T22:16:32.567Z,19.33
2022-12-09T22:19:01.828Z,18.63
2022-12-09T22:21:30.984Z,17.27
2022-12-09T22:24:01.154Z,18.60
2022-12-09T22:26:28.725Z,19.53
2022-12-09T22:28:58.207Z,20.00
2022-12-09T22:31:28.267Z,19.87
2022-12-09T22:33:58.470Z,20.33
2022-12-09T22:36:25.550Z,19.40
2022-12-09T22:38:53.790Z,18.50
2022-12-09T22:41:23.694Z,19.50
2022-12-09T22:43:51.464Z,19.77
2022-12-09T22:46:23.686Z,19.97
2022-12-09T22:48:50.644Z,19.63
2022-12-09T22:51:21.738Z,19.83
2022-12-09T22:53:50.274Z,19.83
2022-12-09T22:56:18.052Z,19.43
2022-12-09T22:58:45.562Z,19.10
2022-12-09T23:01:33.007Z,19.43
2022-12-09T23:04:00.684Z,19.30
2022-12-09T23:06:29.163Z,18.37
2022-12-09T23:08:56.740Z,18.63
2022-12-09T23:11:26.079Z,19.47
2022-12-09T23:13:53.563Z,19.27
2022-12-09T23:16:22.889Z,19.67
2022-12-09T23:18:51.322Z,19.60
2022-12-09T23:21:27.332Z,19.37
2022-12-09T23:24:03.434Z,18.33
2022-12-09T23:26:32.542Z,17.63
2022-12-09T23:29:01.763Z,17.77
2022-12-09T23:31:31.508Z,17.03
2022-12-09T23:33:59.603Z,18.67
2022-12-09T23:36:33.370Z,18.67
2022-12-09T23:39:02.197Z,17.83
2022-12-09T23:41:29.169Z,19.43
2022-12-09T23:43:56.365Z,18.77
2022-12-09T23:46:25.850Z,18.17
2022-12-09T23:48:54.092Z,18.43
2022-12-09T23:51:22.488Z,18.27
2022-12-09T23:53:51.388Z,19.03
2022-12-09T23:56:20.912Z,19.07
2022-12-09T23:58:52.624Z,20.00
